createdAt,value
2023-01-09T00:01:28.800Z,6.99
2023-01-09T00:03:56.421Z,6.86
2023-01-09T00:06:23.867Z,6.77
2023-01-09T00:08:50.943Z,6.70
2023-01-09T00:11:20.880Z,6.56
2023-01-09T00:13:48.078Z,6.66
2023-01-09T00:16:16.744Z,6.64
2023-01-09T00:18:44.034Z,6.54
2023-01-09T00:21:14.773Z,6.68
2023-01-09T00:23:44.118Z,6.64
2023-01-09T00:26:18.670Z,6.65
2023-01-09T00:28:47.821Z,6.79
2023-01-09T00:31:16.038Z,6.73
2023-01-09T00:33:45.870Z,6.84
2023-01-09T00:36:13.503Z,6.57
2023-01-09T00:38:41.229Z,6.70
2023-01-09T00:41:15.373Z,6.82
2023-01-09T00:43:48.810Z,6.68
2023-01-09T00:46:18.891Z,6.65
2023-01-09T00:48:48.717Z,6.61
2023-01-09T00:51:19.115Z,6.48
2023-01-09T00:53:49.064Z,6.46
2023-01-09T00:56:19.584Z,6.49
2023-01-09T00:58:47.281Z,6.34
2023-01-09T01:01:14.876Z,6.19
2023-01-09T01:03:46.233Z,6.13
2023-01-09T01:06:32.096Z,6.03
2023-01-09T01:08:59.209Z,5.92
2023-01-09T01:11:26.948Z,6.03
2023-01-09T01:13:54.282Z,5.92
2023-01-09T01:16:21.795Z,6.01
2023-01-09T01:18:48.965Z,5.91
2023-01-09T01:21:17.231Z,5.88
2023-01-09T01:23:44.926Z,5.75
2023-01-09T01:26:16.961Z,5.67
2023-01-09T01:28:44.527Z,5.65
2023-01-09T01:31:19.420Z,5.85
2023-01-09T01:33:46.415Z,5.86
2023-01-09T01:36:16.314Z,5.86
2023-01-09T01:38:44.103Z,5.97
2023-01-09T01:41:11.441Z,6.29
2023-01-09T01:44:27.814Z,6.20
2023-01-09T01:46:56.518Z,6.31
2023-01-09T01:49:23.747Z,6.01
2023-01-09T01:51:54.060Z,5.73
2023-01-09T01:54:26.379Z,5.60
2023-01-09T01:56:57.202Z,5.56
2023-01-09T01:59:33.752Z,5.56
2023-01-09T02:02:03.406Z,5.78
2023-01-09T02:04:34.695Z,5.87
2023-01-09T02:07:07.594Z,5.69
2023-01-09T02:09:35.347Z,5.96
2023-01-09T02:12:03.218Z,5.92
2023-01-09T02:14:32.584Z,5.86
2023-01-09T02:17:20.266Z,5.83
2023-01-09T02:20:32.012Z,5.82
2023-01-09T02:23:29.735Z,6.11
2023-01-09T02:26:14.651Z,5.91
2023-01-09T02:28:45.216Z,5.85
2023-01-09T02:31:37.829Z,5.74
2023-01-09T02:34:36.627Z,5.48
2023-01-09T02:37:21.948Z,5.56
2023-01-09T02:40:07.089Z,5.33
2023-01-09T02:42:36.053Z,5.45
2023-01-09T02:45:03.824Z,5.42
2023-01-09T02:47:30.928Z,5.31
2023-01-09T02:50:02.014Z,5.55
2023-01-09T02:52:48.823Z,5.35
2023-01-09T02:55:40.281Z,5.35
2023-01-09T02:58:28.938Z,5.23
2023-01-09T03:01:22.704Z,5.04
2023-01-09T03:03:50.148Z,5.29
2023-01-09T03:06:33.243Z,5.22
2023-01-09T03:09:07.227Z,5.31
2023-01-09T03:11:42.596Z,5.20
2023-01-09T03:14:14.655Z,5.25
2023-01-09T03:16:45.964Z,5.11
2023-01-09T03:19:18.244Z,5.20
2023-01-09T03:21:48.153Z,4.93
2023-01-09T03:24:15.633Z,4.95
2023-01-09T03:26:43.541Z,4.96
2023-01-09T03:29:10.791Z,5.14
2023-01-09T03:31:38.358Z,5.02
2023-01-09T03:34:05.553Z,4.89
2023-01-09T03:36:33.135Z,5.02
2023-01-09T03:39:01.558Z,5.08
2023-01-09T03:41:29.152Z,4.96
2023-01-09T03:43:56.392Z,4.97
2023-01-09T03:46:23.795Z,5.05
2023-01-09T03:48:50.911Z,5.17
2023-01-09T03:51:18.365Z,5.17
2023-01-09T03:53:45.485Z,5.16
2023-01-09T03:56:12.871Z,5.27
2023-01-09T03:58:39.978Z,5.29
2023-01-09T04:01:13.036Z,5.37
2023-01-09T04:03:40.700Z,5.52
2023-01-09T04:06:08.177Z,5.35
2023-01-09T04:08:35.240Z,5.23
2023-01-09T04:11:02.718Z,5.29
2023-01-09T04:13:29.892Z,5.31
2023-01-09T04:15:57.289Z,5.21
2023-01-09T04:18:24.402Z,5.27
2023-01-09T04:20:54.514Z,5.17
2023-01-09T04:23:22.671Z,5.30
2023-01-09T04:25:50.041Z,5.27
2023-01-09T04:28:17.169Z,5.26
2023-01-09T04:30:45.078Z,5.33
2023-01-09T04:33:12.251Z,5.37
2023-01-09T04:35:39.747Z,5.46
2023-01-09T04:38:06.871Z,5.56
2023-01-09T04:40:34.479Z,5.52
2023-01-09T04:43:01.912Z,5.51
2023-01-09T04:45:29.472Z,5.48
2023-01-09T04:47:56.620Z,5.57
2023-01-09T04:50:25.100Z,5.60
2023-01-09T04:52:52.467Z,5.60
2023-01-09T04:55:19.959Z,5.53
2023-01-09T04:57:47.022Z,5.55
2023-01-09T05:00:14.756Z,5.49
2023-01-09T05:02:42.073Z,5.49
2023-01-09T05:05:11.876Z,5.60
2023-01-09T05:07:39.494Z,5.59
2023-01-09T05:10:08.926Z,5.59
2023-01-09T05:12:36.688Z,5.61
2023-01-09T05:15:05.243Z,5.63
2023-01-09T05:17:32.485Z,5.50
2023-01-09T05:20:01.203Z,5.61
2023-01-09T05:22:28.558Z,5.69
2023-01-09T05:24:56.334Z,5.85
2023-01-09T05:27:23.534Z,5.91
2023-01-09T05:29:50.988Z,5.88
2023-01-09T05:32:18.069Z,5.78
2023-01-09T05:34:45.440Z,5.87
2023-01-09T05:37:12.518Z,5.89
2023-01-09T05:39:40.034Z,5.70
2023-01-09T05:42:07.460Z,5.68
2023-01-09T05:44:34.862Z,5.76
2023-01-09T05:47:03.504Z,5.68
2023-01-09T05:49:30.924Z,5.66
2023-01-09T05:51:58.019Z,5.58
2023-01-09T05:54:25.551Z,5.71
2023-01-09T05:56:52.653Z,5.66
2023-01-09T05:59:20.335Z,5.68
2023-01-09T06:01:47.371Z,5.76
2023-01-09T06:04:14.938Z,5.79
2023-01-09T06:06:42.131Z,5.71
2023-01-09T06:09:09.826Z,5.70
2023-01-09T06:11:38.529Z,5.82
2023-01-09T06:14:06.559Z,5.82
2023-01-09T06:16:33.639Z,5.81
2023-01-09T06:19:01.030Z,5.75
2023-01-09T06:21:29.619Z,5.79
2023-01-09T06:23:57.075Z,5.66
2023-01-09T06:26:25.551Z,5.81
2023-01-09T06:28:55.799Z,5.82
2023-01-09T06:31:24.083Z,5.82
2023-01-09T06:33:51.561Z,5.81
2023-01-09T06:36:19.997Z,5.78
2023-01-09T06:38:49.106Z,5.79
2023-01-09T06:41:16.240Z,5.98
2023-01-09T06:43:43.944Z,5.91
2023-01-09T06:46:11.048Z,5.92
2023-01-09T06:48:38.600Z,5.96
2023-01-09T06:51:05.975Z,5.89
2023-01-09T06:53:35.095Z,5.92
2023-01-09T06:56:05.169Z,5.95
2023-01-09T06:58:32.657Z,6.02
2023-01-09T07:00:59.904Z,6.18
2023-01-09T07:03:27.870Z,6.16
2023-01-09T07:05:55.636Z,6.30
2023-01-09T07:08:23.151Z,6.29
2023-01-09T07:10:50.358Z,6.51
2023-01-09T07:13:17.797Z,6.57
2023-01-09T07:15:44.980Z,6.80
2023-01-09T07:18:12.619Z,7.38
2023-01-09T07:20:41.680Z,7.59
2023-01-09T07:23:14.244Z,7.42
2023-01-09T07:25:45.155Z,7.23
2023-01-09T07:28:31.402Z,7.24
2023-01-09T07:31:02.685Z,7.21
2023-01-09T07:33:30.184Z,7.15
2023-01-09T07:35:58.266Z,7.05
2023-01-09T07:38:26.275Z,6.95
2023-01-09T07:40:53.657Z,6.92
2023-01-09T07:43:21.301Z,6.96
2023-01-09T07:45:48.381Z,6.82
2023-01-09T07:48:15.828Z,6.89
2023-01-09T07:50:42.857Z,6.91
2023-01-09T07:53:10.278Z,6.93
2023-01-09T07:55:37.386Z,6.99
2023-01-09T07:58:04.857Z,6.85
2023-01-09T08:00:33.399Z,6.93
2023-01-09T08:03:01.158Z,6.93
2023-01-09T08:05:28.370Z,6.78
2023-01-09T08:07:55.850Z,6.88
2023-01-09T08:10:22.958Z,6.96
2023-01-09T08:12:50.434Z,6.99
2023-01-09T08:15:18.225Z,6.80
2023-01-09T08:17:47.022Z,7.05
2023-01-09T08:20:16.491Z,7.22
2023-01-09T08:22:50.147Z,7.09
2023-01-09T08:25:18.266Z,7.15
2023-01-09T08:27:46.180Z,7.16
2023-01-09T08:30:14.878Z,7.24
2023-01-09T08:32:42.944Z,7.17
2023-01-09T08:35:10.422Z,7.10
2023-01-09T08:37:37.856Z,7.13
2023-01-09T08:40:08.568Z,7.17
2023-01-09T08:42:54.882Z,7.16
2023-01-09T08:45:40.554Z,7.16
2023-01-09T08:48:08.402Z,7.01
2023-01-09T08:50:35.580Z,7.16
2023-01-09T08:53:03.512Z,7.13
2023-01-09T08:55:30.751Z,7.31
2023-01-09T08:57:58.143Z,7.33
2023-01-09T09:00:25.642Z,7.38
2023-01-09T09:02:59.502Z,7.59
2023-01-09T09:05:28.415Z,7.69
2023-01-09T09:07:56.796Z,7.75
2023-01-09T09:10:26.431Z,7.80
2023-01-09T09:12:56.936Z,7.84
2023-01-09T09:15:25.193Z,7.92
2023-01-09T09:17:58.168Z,8.00
2023-01-09T09:20:28.877Z,7.98
2023-01-09T09:22:56.634Z,7.96
2023-01-09T09:25:23.999Z,8.02
2023-01-09T09:27:52.276Z,8.08
2023-01-09T09:30:20.278Z,8.20
2023-01-09T09:32:47.764Z,8.12
2023-01-09T09:35:15.575Z,8.04
2023-01-09T09:37:44.422Z,8.02
2023-01-09T09:40:20.359Z,8.03
2023-01-09T09:43:44.276Z,7.99
2023-01-09T09:46:47.793Z,7.96
2023-01-09T09:49:22.063Z,8.07
2023-01-09T09:52:13.896Z,8.04
2023-01-09T09:54:49.062Z,7.99
2023-01-09T09:57:19.518Z,8.03
2023-01-09T09:59:52.031Z,8.02
2023-01-09T10:02:29.653Z,8.07
2023-01-09T10:05:04.749Z,8.06
2023-01-09T10:07:38.874Z,8.06
2023-01-09T10:10:11.027Z,8.12
2023-01-09T10:12:53.837Z,8.12
2023-01-09T10:16:02.345Z,8.14
2023-01-09T10:19:06.691Z,8.04
2023-01-09T10:21:52.547Z,8.12
2023-01-09T10:24:37.674Z,8.13
2023-01-09T10:27:19.779Z,8.13
2023-01-09T10:30:03.307Z,8.10
2023-01-09T10:32:36.827Z,8.07
2023-01-09T10:35:46.977Z,8.00
2023-01-09T10:38:21.606Z,7.96
2023-01-09T10:41:03.337Z,7.96
2023-01-09T10:43:45.879Z,7.90
2023-01-09T10:46:22.153Z,7.89
2023-01-09T10:48:59.479Z,7.90
2023-01-09T10:51:46.997Z,8.13
2023-01-09T10:54:18.593Z,8.01
2023-01-09T10:56:54.969Z,8.13
2023-01-09T10:59:24.490Z,8.05
2023-01-09T11:01:51.916Z,8.15
2023-01-09T11:04:37.776Z,8.18
2023-01-09T11:07:21.748Z,8.24
2023-01-09T11:09:56.903Z,8.23
2023-01-09T11:12:26.671Z,8.34
2023-01-09T11:14:56.329Z,8.31
2023-01-09T11:17:27.563Z,8.53
2023-01-09T11:20:08.616Z,8.48
2023-01-09T11:22:44.934Z,8.64
2023-01-09T11:25:17.293Z,8.71
2023-01-09T11:27:45.311Z,8.68
2023-01-09T11:30:12.765Z,8.78
2023-01-09T11:32:39.968Z,8.79
2023-01-09T11:35:17.389Z,8.82
2023-01-09T11:37:46.254Z,8.82
2023-01-09T11:40:20.475Z,8.84
2023-01-09T11:43:11.631Z,8.79
2023-01-09T11:46:00.505Z,8.86
2023-01-09T11:48:31.897Z,8.86
2023-01-09T11:51:01.099Z,8.88
2023-01-09T11:53:28.785Z,8.96
2023-01-09T11:56:04.510Z,8.96
2023-01-09T11:58:35.210Z,8.92
2023-01-09T12:01:33.432Z,8.90
2023-01-09T12:04:23.519Z,8.88
2023-01-09T12:07:26.506Z,8.88
2023-01-09T12:10:11.695Z,8.87
2023-01-09T12:13:02.547Z,8.67
2023-01-09T12:15:41.695Z,8.70
2023-01-09T12:18:34.168Z,8.52
2023-01-09T12:21:10.837Z,8.48
2023-01-09T12:24:23.099Z,8.27
2023-01-09T12:27:22.078Z,8.42
2023-01-09T12:30:05.125Z,8.37
2023-01-09T12:33:01.830Z,8.27
2023-01-09T12:35:47.640Z,8.30
2023-01-09T12:38:33.517Z,8.31
2023-01-09T12:41:38.282Z,8.40
2023-01-09T12:44:18.142Z,8.35
2023-01-09T12:47:07.059Z,8.25
2023-01-09T12:49:39.504Z,8.20
2023-01-09T12:52:17.477Z,8.29
2023-01-09T12:54:53.752Z,8.22
2023-01-09T12:57:30.369Z,8.25
2023-01-09T13:00:20.788Z,8.12
2023-01-09T13:03:11.974Z,8.10
2023-01-09T13:05:46.127Z,8.09
2023-01-09T13:08:37.942Z,8.05
2023-01-09T13:11:20.397Z,8.23
2023-01-09T13:14:09.986Z,8.18
2023-01-09T13:16:42.507Z,8.40
2023-01-09T13:19:25.298Z,8.52
2023-01-09T13:21:53.756Z,8.53
2023-01-09T13:24:34.355Z,8.52
2023-01-09T13:27:08.847Z,8.64
2023-01-09T13:29:44.217Z,8.67
2023-01-09T13:32:23.503Z,8.77
2023-01-09T13:34:55.066Z,8.81
2023-01-09T13:37:31.420Z,8.94
2023-01-09T13:40:00.879Z,8.99
2023-01-09T13:42:36.738Z,9.07
2023-01-09T13:45:25.512Z,9.13
2023-01-09T13:48:11.376Z,9.21
2023-01-09T13:50:39.628Z,9.15
2023-01-09T13:53:32.273Z,9.29
2023-01-09T13:55:59.905Z,9.20
2023-01-09T13:58:32.053Z,9.23
2023-01-09T14:01:03.294Z,9.30
2023-01-09T14:03:36.714Z,9.24
2023-01-09T14:06:13.170Z,9.17
2023-01-09T14:08:42.139Z,9.16
2023-01-09T14:11:19.182Z,9.03
2023-01-09T14:13:47.323Z,9.00
2023-01-09T14:16:24.981Z,8.89
2023-01-09T14:19:25.629Z,8.57
2023-01-09T14:21:56.170Z,8.16
2023-01-09T14:24:31.508Z,8.11
2023-01-09T14:27:01.322Z,7.88
2023-01-09T14:29:31.263Z,7.73
2023-01-09T14:32:23.731Z,7.38
2023-01-09T14:34:57.851Z,7.14
2023-01-09T14:37:28.206Z,7.14
2023-01-09T14:39:56.710Z,7.15
2023-01-09T14:42:28.714Z,6.88
2023-01-09T14:45:04.385Z,6.79
2023-01-09T14:47:31.799Z,6.80
2023-01-09T14:50:17.734Z,6.71
2023-01-09T14:52:49.343Z,6.63
2023-01-09T14:55:36.323Z,6.67
2023-01-09T14:58:20.521Z,6.58
2023-01-09T15:01:10.768Z,6.42
2023-01-09T15:03:40.680Z,6.43
2023-01-09T15:06:15.295Z,6.37
2023-01-09T15:09:06.071Z,6.45
2023-01-09T15:11:36.999Z,6.39
2023-01-09T15:14:06.680Z,6.35
2023-01-09T15:16:33.884Z,6.38
2023-01-09T15:19:07.696Z,6.43
2023-01-09T15:21:35.063Z,6.48
2023-01-09T15:24:23.072Z,6.56
2023-01-09T15:26:55.384Z,6.42
2023-01-09T15:29:23.186Z,6.42
2023-01-09T15:31:55.722Z,6.38
2023-01-09T15:34:25.758Z,6.39
2023-01-09T15:36:53.930Z,6.38
2023-01-09T15:39:40.187Z,6.47
2023-01-09T15:42:41.604Z,6.47
2023-01-09T15:45:29.606Z,6.47
2023-01-09T15:48:31.002Z,6.51
2023-01-09T15:51:12.110Z,6.50
2023-01-09T15:53:43.172Z,6.58
2023-01-09T15:56:13.667Z,6.52
2023-01-09T15:58:47.326Z,6.42
2023-01-09T16:01:24.082Z,6.50
2023-01-09T16:03:51.885Z,6.47
2023-01-09T16:06:27.881Z,6.39
2023-01-09T16:08:58.027Z,6.43
2023-01-09T16:11:35.031Z,6.50
2023-01-09T16:14:34.915Z,6.45
2023-01-09T16:17:07.413Z,6.22
2023-01-09T16:20:12.098Z,6.27
2023-01-09T16:22:56.579Z,6.24
2023-01-09T16:25:37.038Z,6.19
2023-01-09T16:28:30.749Z,6.18
2023-01-09T16:31:03.754Z,6.24
2023-01-09T16:33:32.059Z,6.22
2023-01-09T16:35:59.382Z,6.27
2023-01-09T16:38:27.442Z,6.22
2023-01-09T16:41:26.952Z,6.23
2023-01-09T16:43:57.312Z,6.28
2023-01-09T16:46:24.748Z,6.26
2023-01-09T16:48:53.856Z,6.10
2023-01-09T16:51:23.058Z,6.07
2023-01-09T16:53:50.482Z,6.09
2023-01-09T16:56:27.636Z,6.03
2023-01-09T16:58:55.111Z,6.09
2023-01-09T17:01:23.753Z,6.09
2023-01-09T17:03:52.637Z,6.10
2023-01-09T17:06:39.500Z,6.00
2023-01-09T17:09:07.218Z,6.09
2023-01-09T17:11:34.321Z,6.06
2023-01-09T17:14:02.466Z,6.04
2023-01-09T17:16:30.711Z,6.02
2023-01-09T17:18:58.173Z,5.91
2023-01-09T17:21:30.920Z,5.89
2023-01-09T17:24:18.323Z,5.82
2023-01-09T17:27:09.725Z,5.73
2023-01-09T17:29:37.664Z,5.55
2023-01-09T17:32:04.983Z,5.35
2023-01-09T17:34:33.843Z,5.29
2023-01-09T17:37:03.100Z,5.26
2023-01-09T17:39:31.754Z,5.26
2023-01-09T17:42:01.979Z,5.15
2023-01-09T17:44:29.815Z,5.20
2023-01-09T17:46:56.986Z,5.19
2023-01-09T17:49:24.577Z,5.20
2023-01-09T17:51:52.403Z,5.21
2023-01-09T17:54:21.322Z,5.20
2023-01-09T17:56:51.225Z,5.01
2023-01-09T17:59:19.076Z,5.05
2023-01-09T18:01:47.127Z,5.02
2023-01-09T18:04:14.710Z,5.05
2023-01-09T18:06:41.860Z,5.20
2023-01-09T18:09:14.778Z,5.24
2023-01-09T18:11:42.093Z,4.98
2023-01-09T18:14:11.221Z,4.96
2023-01-09T18:16:39.312Z,4.86
2023-01-09T18:19:06.929Z,4.98
2023-01-09T18:21:34.254Z,4.95
2023-01-09T18:24:02.029Z,5.11
2023-01-09T18:26:29.323Z,4.87
2023-01-09T18:28:59.354Z,4.71
2023-01-09T18:31:28.099Z,4.64
2023-01-09T18:33:57.959Z,4.81
2023-01-09T18:36:29.737Z,4.76
2023-01-09T18:39:02.419Z,4.82
2023-01-09T18:41:30.741Z,4.91
2023-01-09T18:44:00.281Z,5.00
2023-01-09T18:46:32.065Z,4.97
2023-01-09T18:49:03.130Z,5.00
2023-01-09T18:51:31.635Z,4.94
2023-01-09T18:53:59.005Z,4.96
2023-01-09T18:56:26.467Z,5.03
2023-01-09T18:58:57.217Z,4.95
2023-01-09T19:01:25.325Z,4.85
2023-01-09T19:03:53.344Z,4.92
2023-01-09T19:06:21.785Z,4.82
2023-01-09T19:08:49.440Z,4.84
2023-01-09T19:11:16.614Z,4.74
2023-01-09T19:13:44.375Z,4.82
2023-01-09T19:16:11.686Z,4.82
2023-01-09T19:18:44.766Z,4.75
2023-01-09T19:21:16.507Z,4.51
2023-01-09T19:23:45.315Z,4.65
2023-01-09T19:26:20.480Z,4.65
2023-01-09T19:28:48.262Z,4.63
2023-01-09T19:31:16.131Z,4.78
2023-01-09T19:33:44.961Z,4.69
2023-01-09T19:36:12.770Z,4.54
2023-01-09T19:38:41.467Z,4.48
2023-01-09T19:41:14.627Z,4.54
2023-01-09T19:43:42.346Z,4.45
2023-01-09T19:46:13.147Z,4.51
2023-01-09T19:48:42.675Z,4.58
2023-01-09T19:51:11.094Z,4.53
2023-01-09T19:53:39.735Z,4.57
2023-01-09T19:56:14.777Z,4.62
2023-01-09T19:58:43.893Z,4.78
2023-01-09T20:01:14.696Z,4.71
2023-01-09T20:03:44.318Z,4.65
2023-01-09T20:06:14.472Z,4.57
2023-01-09T20:08:53.809Z,4.57
2023-01-09T20:11:23.388Z,4.58
2023-01-09T20:13:51.017Z,4.53
2023-01-09T20:16:22.971Z,4.69
2023-01-09T20:18:50.519Z,4.59
2023-01-09T20:21:21.826Z,4.57
2023-01-09T20:23:53.255Z,4.52
2023-01-09T20:26:29.219Z,4.49
2023-01-09T20:29:01.908Z,4.55
2023-01-09T20:31:33.228Z,4.58
2023-01-09T20:34:02.938Z,4.54
2023-01-09T20:36:32.577Z,4.59
2023-01-09T20:39:02.010Z,4.65
2023-01-09T20:41:31.588Z,4.66
2023-01-09T20:44:04.999Z,4.63
2023-01-09T20:46:36.957Z,4.64
2023-01-09T20:49:08.766Z,4.59
2023-01-09T20:51:41.609Z,4.80
2023-01-09T20:54:09.265Z,4.72
2023-01-09T20:56:37.290Z,4.75
2023-01-09T20:59:06.624Z,4.75
2023-01-09T21:01:35.917Z,4.89
2023-01-09T21:04:10.557Z,5.01
2023-01-09T21:06:38.045Z,5.11
2023-01-09T21:09:05.978Z,5.23
2023-01-09T21:11:35.455Z,5.32
2023-01-09T21:14:05.698Z,5.46
2023-01-09T21:16:34.057Z,5.48
2023-01-09T21:19:02.970Z,5.44
2023-01-09T21:21:35.206Z,5.63
2023-01-09T21:24:07.821Z,5.74
2023-01-09T21:26:39.607Z,5.73
2023-01-09T21:29:08.713Z,5.81
2023-01-09T21:31:37.113Z,5.79
2023-01-09T21:34:07.231Z,5.82
2023-01-09T21:36:36.851Z,5.81
2023-01-09T21:39:08.129Z,5.80
2023-01-09T21:41:55.023Z,5.77
2023-01-09T21:44:42.687Z,5.73
2023-01-09T21:47:10.974Z,5.67
2023-01-09T21:49:44.517Z,5.73
2023-01-09T21:52:13.132Z,5.80
2023-01-09T21:54:41.904Z,5.79
2023-01-09T21:57:11.803Z,5.90
2023-01-09T21:59:39.378Z,5.90
2023-01-09T22:02:07.025Z,5.90
2023-01-09T22:04:34.770Z,5.86
2023-01-09T22:07:01.869Z,5.76
2023-01-09T22:09:29.305Z,5.82
2023-01-09T22:11:57.882Z,5.85
2023-01-09T22:14:25.368Z,5.86
2023-01-09T22:16:52.464Z,5.88
2023-01-09T22:19:19.959Z,5.88
2023-01-09T22:21:47.232Z,5.85
2023-01-09T22:24:16.909Z,5.86
2023-01-09T22:26:46.411Z,5.89
2023-01-09T22:29:16.605Z,5.90
2023-01-09T22:31:45.422Z,5.84
2023-01-09T22:34:18.394Z,5.76
2023-01-09T22:36:46.703Z,5.73
2023-01-09T22:39:15.990Z,5.89
2023-01-09T22:41:43.396Z,5.95
2023-01-09T22:44:12.211Z,5.87
2023-01-09T22:46:39.602Z,5.49
2023-01-09T22:49:07.084Z,5.81
2023-01-09T22:51:34.261Z,5.80
2023-01-09T22:54:02.017Z,5.82
2023-01-09T22:56:29.392Z,5.85
2023-01-09T22:58:59.122Z,5.82
2023-01-09T23:01:26.486Z,5.82
2023-01-09T23:03:53.988Z,5.81
2023-01-09T23:06:23.289Z,5.80
2023-01-09T23:08:52.874Z,5.86
2023-01-09T23:11:48.150Z,5.73
2023-01-09T23:14:17.221Z,5.82
2023-01-09T23:16:45.385Z,5.80
2023-01-09T23:19:14.692Z,5.89
2023-01-09T23:21:43.420Z,5.95
2023-01-09T23:24:12.622Z,5.96
2023-01-09T23:26:40.522Z,6.05
2023-01-09T23:29:10.521Z,6.07
2023-01-09T23:31:39.789Z,5.87
2023-01-09T23:34:08.801Z,6.13
2023-01-09T23:36:37.284Z,6.12
2023-01-09T23:39:09.133Z,6.13
2023-01-09T23:42:09.546Z,6.12
2023-01-09T23:44:36.970Z,6.03
2023-01-09T23:47:04.207Z,6.18
2023-01-09T23:49:31.570Z,6.21
2023-01-09T23:52:01.672Z,6.28
2023-01-09T23:54:29.154Z,6.22
2023-01-09T23:56:56.650Z,6.20
2023-01-09T23:59:24.164Z,6.20
